sensor_id;sensor_type;location;lat;lon;timestamp;temperature;humidity
20594;DHT22;10455;48.732;10.266;2022-09-04T00:03:13;12.50;99.90
20594;DHT22;10455;48.732;10.266;2022-09-04T00:08:35;12.40;99.90
20594;DHT22;10455;48.732;10.266;2022-09-04T00:13:42;12.20;99.90
20594;DHT22;10455;48.732;10.266;2022-09-04T00:18:53;12.20;99.90
20594;DHT22;10455;48.732;10.266;2022-09-04T00:24:02;12.30;99.90
20594;DHT22;10455;48.732;10.266;2022-09-04T00:29:11;12.40;99.90
20594;DHT22;10455;48.732;10.266;2022-09-04T00:34:26;12.70;99.90
20594;DHT22;10455;48.732;10.266;2022-09-04T00:39:37;12.90;99.90
20594;DHT22;10455;48.732;10.266;2022-09-04T00:44:51;12.90;99.90
20594;DHT22;10455;48.732;10.266;2022-09-04T00:55:45;12.90;99.90
20594;DHT22;10455;48.732;10.266;2022-09-04T01:00:53;12.90;99.90
20594;DHT22;10455;48.732;10.266;2022-09-04T01:06:20;13.00;99.90
20594;DHT22;10455;48.732;10.266;2022-09-04T01:11:34;13.00;99.90
20594;DHT22;10455;48.732;10.266;2022-09-04T01:16:45;13.00;99.90
20594;DHT22;10455;48.732;10.266;2022-09-04T01:22:03;13.20;99.90
20594;DHT22;10455;48.732;10.266;2022-09-04T01:27:15;13.40;99.90
20594;DHT22;10455;48.732;10.266;2022-09-04T01:32:30;13.50;99.90
20594;DHT22;10455;48.732;10.266;2022-09-04T01:37:43;13.40;99.90
20594;DHT22;10455;48.732;10.266;2022-09-04T01:42:53;13.50;99.90
20594;DHT22;10455;48.732;10.266;2022-09-04T01:48:01;13.50;99.90
20594;DHT22;10455;48.732;10.266;2022-09-04T01:53:11;13.50;99.90
20594;DHT22;10455;48.732;10.266;2022-09-04T01:58:26;13.50;99.90
20594;DHT22;10455;48.732;10.266;2022-09-04T02:03:39;13.60;99.90
20594;DHT22;10455;48.732;10.266;2022-09-04T02:09:03;13.50;99.90
20594;DHT22;10455;48.732;10.266;2022-09-04T02:14:17;13.60;99.90
20594;DHT22;10455;48.732;10.266;2022-09-04T02:19:31;13.60;99.90
20594;DHT22;10455;48.732;10.266;2022-09-04T02:24:41;13.60;99.90
20594;DHT22;10455;48.732;10.266;2022-09-04T02:29:54;13.50;99.90
20594;DHT22;10455;48.732;10.266;2022-09-04T02:35:03;13.10;99.90
20594;DHT22;10455;48.732;10.266;2022-09-04T02:40:13;12.90;99.90
20594;DHT22;10455;48.732;10.266;2022-09-04T02:45:23;12.70;99.90
20594;DHT22;10455;48.732;10.266;2022-09-04T02:50:44;12.60;99.90
20594;DHT22;10455;48.732;10.266;2022-09-04T02:56:01;12.50;99.90
20594;DHT22;10455;48.732;10.266;2022-09-04T03:01:13;12.50;99.90
20594;DHT22;10455;48.732;10.266;2022-09-04T03:06:22;12.50;99.90
20594;DHT22;10455;48.732;10.266;2022-09-04T03:11:32;12.40;99.90
20594;DHT22;10455;48.732;10.266;2022-09-04T03:16:42;12.20;99.90
20594;DHT22;10455;48.732;10.266;2022-09-04T03:21:51;12.30;99.90
20594;DHT22;10455;48.732;10.266;2022-09-04T03:26:55;12.30;99.90
20594;DHT22;10455;48.732;10.266;2022-09-04T03:32:09;12.30;99.90
20594;DHT22;10455;48.732;10.266;2022-09-04T03:37:26;12.10;99.90
20594;DHT22;10455;48.732;10.266;2022-09-04T03:42:38;12.10;99.90
20594;DHT22;10455;48.732;10.266;2022-09-04T03:47:53;12.00;99.90
20594;DHT22;10455;48.732;10.266;2022-09-04T03:53:04;11.90;99.90
20594;DHT22;10455;48.732;10.266;2022-09-04T03:58:17;11.70;99.90
20594;DHT22;10455;48.732;10.266;2022-09-04T04:03:35;11.90;99.90
20594;DHT22;10455;48.732;10.266;2022-09-04T04:09:02;11.80;99.90
20594;DHT22;10455;48.732;10.266;2022-09-04T04:14:23;11.70;99.90
20594;DHT22;10455;48.732;10.266;2022-09-04T04:19:47;11.50;99.90
20594;DHT22;10455;48.732;10.266;2022-09-04T04:25:17;11.50;99.90
20594;DHT22;10455;48.732;10.266;2022-09-04T04:30:27;11.40;99.90
20594;DHT22;10455;48.732;10.266;2022-09-04T04:35:37;11.40;99.90
20594;DHT22;10455;48.732;10.266;2022-09-04T04:40:59;11.40;99.90
20594;DHT22;10455;48.732;10.266;2022-09-04T04:46:10;11.40;99.90
20594;DHT22;10455;48.732;10.266;2022-09-04T04:51:57;11.40;99.90
20594;DHT22;10455;48.732;10.266;2022-09-04T04:57:06;11.50;99.90
20594;DHT22;10455;48.732;10.266;2022-09-04T05:02:16;11.50;99.90
20594;DHT22;10455;48.732;10.266;2022-09-04T05:07:29;11.70;99.90
20594;DHT22;10455;48.732;10.266;2022-09-04T05:12:56;11.90;99.90
20594;DHT22;10455;48.732;10.266;2022-09-04T05:18:07;14.80;99.90
20594;DHT22;10455;48.732;10.266;2022-09-04T05:23:21;14.80;99.90
20594;DHT22;10455;48.732;10.266;2022-09-04T05:28:32;17.30;99.90
20594;DHT22;10455;48.732;10.266;2022-09-04T05:33:40;19.40;99.90
20594;DHT22;10455;48.732;10.266;2022-09-04T05:38:56;21.50;99.90
20594;DHT22;10455;48.732;10.266;2022-09-04T05:44:15;23.40;99.90
20594;DHT22;10455;48.732;10.266;2022-09-04T05:49:36;23.30;99.90
20594;DHT22;10455;48.732;10.266;2022-09-04T06:00:13;26.40;99.90
20594;DHT22;10455;48.732;10.266;2022-09-04T06:05:25;24.60;99.90
20594;DHT22;10455;48.732;10.266;2022-09-04T06:10:44;25.60;99.90
20594;DHT22;10455;48.732;10.266;2022-09-04T06:16:00;29.60;99.90
20594;DHT22;10455;48.732;10.266;2022-09-04T06:21:34;32.60;98.30
20594;DHT22;10455;48.732;10.266;2022-09-04T06:27:07;34.30;92.80
20594;DHT22;10455;48.732;10.266;2022-09-04T06:32:52;35.20;90.10
20594;DHT22;10455;48.732;10.266;2022-09-04T06:38:11;35.60;87.80
20594;DHT22;10455;48.732;10.266;2022-09-04T06:43:27;34.40;90.00
20594;DHT22;10455;48.732;10.266;2022-09-04T06:48:48;33.10;93.00
20594;DHT22;10455;48.732;10.266;2022-09-04T06:53:59;30.20;95.30
20594;DHT22;10455;48.732;10.266;2022-09-04T06:59:22;29.20;98.80
20594;DHT22;10455;48.732;10.266;2022-09-04T07:04:45;30.00;97.40
20594;DHT22;10455;48.732;10.266;2022-09-04T07:09:53;34.00;92.80
20594;DHT22;10455;48.732;10.266;2022-09-04T07:15:25;36.30;87.20
20594;DHT22;10455;48.732;10.266;2022-09-04T07:20:32;38.10;82.60
20594;DHT22;10455;48.732;10.266;2022-09-04T07:25:42;38.80;81.30
20594;DHT22;10455;48.732;10.266;2022-09-04T07:30:52;39.70;77.90
20594;DHT22;10455;48.732;10.266;2022-09-04T07:36:03;40.20;74.80
20594;DHT22;10455;48.732;10.266;2022-09-04T07:41:13;39.40;74.60
20594;DHT22;10455;48.732;10.266;2022-09-04T07:46:21;39.50;73.30
20594;DHT22;10455;48.732;10.266;2022-09-04T07:51:34;37.90;77.10
20594;DHT22;10455;48.732;10.266;2022-09-04T07:56:56;38.00;77.20
20594;DHT22;10455;48.732;10.266;2022-09-04T08:02:20;38.00;75.00
20594;DHT22;10455;48.732;10.266;2022-09-04T08:08:07;35.60;81.90
20594;DHT22;10455;48.732;10.266;2022-09-04T08:13:30;36.30;80.00
20594;DHT22;10455;48.732;10.266;2022-09-04T08:30:02;35.50;82.50
20594;DHT22;10455;48.732;10.266;2022-09-04T08:35:19;35.60;77.30
20594;DHT22;10455;48.732;10.266;2022-09-04T08:40:50;35.50;78.10
20594;DHT22;10455;48.732;10.266;2022-09-04T08:46:19;38.60;71.00
20594;DHT22;10455;48.732;10.266;2022-09-04T08:52:00;37.40;72.30
20594;DHT22;10455;48.732;10.266;2022-09-04T09:09:03;30.90;91.20
20594;DHT22;10455;48.732;10.266;2022-09-04T09:14:38;30.60;89.20
20594;DHT22;10455;48.732;10.266;2022-09-04T09:19:57;35.00;80.50
20594;DHT22;10455;48.732;10.266;2022-09-04T09:25:15;36.60;74.50
20594;DHT22;10455;48.732;10.266;2022-09-04T09:30:21;37.80;69.30
20594;DHT22;10455;48.732;10.266;2022-09-04T09:35:59;36.70;73.00
20594;DHT22;10455;48.732;10.266;2022-09-04T09:52:58;29.30;89.10
20594;DHT22;10455;48.732;10.266;2022-09-04T10:15:26;26.90;94.70
20594;DHT22;10455;48.732;10.266;2022-09-04T10:37:42;32.40;88.40
20594;DHT22;10455;48.732;10.266;2022-09-04T10:42:57;32.50;83.90
20594;DHT22;10455;48.732;10.266;2022-09-04T10:48:31;33.50;79.90
20594;DHT22;10455;48.732;10.266;2022-09-04T10:53:52;33.80;78.20
20594;DHT22;10455;48.732;10.266;2022-09-04T10:59:27;33.80;77.20
20594;DHT22;10455;48.732;10.266;2022-09-04T11:10:22;35.60;75.10
20594;DHT22;10455;48.732;10.266;2022-09-04T11:15:46;35.60;73.30
20594;DHT22;10455;48.732;10.266;2022-09-04T11:21:26;33.90;74.90
20594;DHT22;10455;48.732;10.266;2022-09-04T11:38:15;34.50;73.00
20594;DHT22;10455;48.732;10.266;2022-09-04T11:43:33;33.50;74.30
20594;DHT22;10455;48.732;10.266;2022-09-04T11:49:02;33.30;74.40
20594;DHT22;10455;48.732;10.266;2022-09-04T11:54:25;33.60;71.60
20594;DHT22;10455;48.732;10.266;2022-09-04T12:00:02;33.70;71.40
20594;DHT22;10455;48.732;10.266;2022-09-04T12:05:17;33.10;72.00
20594;DHT22;10455;48.732;10.266;2022-09-04T12:10:59;33.40;72.10
20594;DHT22;10455;48.732;10.266;2022-09-04T12:22:45;32.50;71.00
20594;DHT22;10455;48.732;10.266;2022-09-04T12:34:06;30.70;70.20
20594;DHT22;10455;48.732;10.266;2022-09-04T12:39:35;28.50;79.40
20594;DHT22;10455;48.732;10.266;2022-09-04T12:44:52;27.50;77.60
20594;DHT22;10455;48.732;10.266;2022-09-04T12:50:17;29.30;72.70
20594;DHT22;10455;48.732;10.266;2022-09-04T12:55:33;29.50;72.90
20594;DHT22;10455;48.732;10.266;2022-09-04T13:00:53;29.60;71.80
20594;DHT22;10455;48.732;10.266;2022-09-04T13:06:12;30.20;71.50
20594;DHT22;10455;48.732;10.266;2022-09-04T13:11:35;31.60;71.00
20594;DHT22;10455;48.732;10.266;2022-09-04T13:16:42;31.80;66.10
20594;DHT22;10455;48.732;10.266;2022-09-04T13:22:06;31.20;69.20
20594;DHT22;10455;48.732;10.266;2022-09-04T13:27:21;31.00;69.50
20594;DHT22;10455;48.732;10.266;2022-09-04T13:32:49;31.90;65.20
20594;DHT22;10455;48.732;10.266;2022-09-04T13:43:44;33.20;65.20
20594;DHT22;10455;48.732;10.266;2022-09-04T13:48:56;33.30;59.60
20594;DHT22;10455;48.732;10.266;2022-09-04T13:54:08;34.20;59.50
20594;DHT22;10455;48.732;10.266;2022-09-04T13:59:14;34.90;55.90
20594;DHT22;10455;48.732;10.266;2022-09-04T14:04:21;33.80;57.10
20594;DHT22;10455;48.732;10.266;2022-09-04T14:09:28;33.10;59.30
20594;DHT22;10455;48.732;10.266;2022-09-04T14:15:01;32.00;57.00
20594;DHT22;10455;48.732;10.266;2022-09-04T14:20:14;32.30;59.10
20594;DHT22;10455;48.732;10.266;2022-09-04T14:25:21;33.00;58.80
20594;DHT22;10455;48.732;10.266;2022-09-04T14:30:27;33.10;58.30
20594;DHT22;10455;48.732;10.266;2022-09-04T14:35:36;33.40;58.40
20594;DHT22;10455;48.732;10.266;2022-09-04T14:40:55;33.10;61.10
20594;DHT22;10455;48.732;10.266;2022-09-04T14:46:07;33.20;60.40
20594;DHT22;10455;48.732;10.266;2022-09-04T14:51:15;32.90;59.70
20594;DHT22;10455;48.732;10.266;2022-09-04T14:56:28;33.30;59.00
20594;DHT22;10455;48.732;10.266;2022-09-04T15:01:35;32.50;60.80
20594;DHT22;10455;48.732;10.266;2022-09-04T15:06:41;33.00;59.00
20594;DHT22;10455;48.732;10.266;2022-09-04T15:11:47;32.80;60.30
20594;DHT22;10455;48.732;10.266;2022-09-04T15:16:52;33.10;59.70
20594;DHT22;10455;48.732;10.266;2022-09-04T15:21:58;33.10;60.50
20594;DHT22;10455;48.732;10.266;2022-09-04T15:27:10;33.50;60.60
20594;DHT22;10455;48.732;10.266;2022-09-04T15:32:20;34.20;60.30
20594;DHT22;10455;48.732;10.266;2022-09-04T15:37:25;34.70;57.60
20594;DHT22;10455;48.732;10.266;2022-09-04T15:42:40;35.20;58.30
20594;DHT22;10455;48.732;10.266;2022-09-04T15:48:16;34.70;58.80
20594;DHT22;10455;48.732;10.266;2022-09-04T15:53:24;32.80;60.50
20594;DHT22;10455;48.732;10.266;2022-09-04T15:58:33;33.20;62.60
20594;DHT22;10455;48.732;10.266;2022-09-04T16:03:52;31.30;63.00
20594;DHT22;10455;48.732;10.266;2022-09-04T16:08:59;29.00;67.60
20594;DHT22;10455;48.732;10.266;2022-09-04T16:14:07;27.30;73.10
20594;DHT22;10455;48.732;10.266;2022-09-04T16:19:21;26.30;75.60
20594;DHT22;10455;48.732;10.266;2022-09-04T16:24:31;25.50;79.20
20594;DHT22;10455;48.732;10.266;2022-09-04T16:29:38;25.50;77.20
20594;DHT22;10455;48.732;10.266;2022-09-04T16:34:46;25.30;78.50
20594;DHT22;10455;48.732;10.266;2022-09-04T16:40:03;25.10;78.50
20594;DHT22;10455;48.732;10.266;2022-09-04T16:45:12;24.90;80.30
20594;DHT22;10455;48.732;10.266;2022-09-04T16:50:21;24.60;80.10
20594;DHT22;10455;48.732;10.266;2022-09-04T16:55:29;24.60;82.10
20594;DHT22;10455;48.732;10.266;2022-09-04T17:00:55;24.30;83.80
20594;DHT22;10455;48.732;10.266;2022-09-04T17:06:02;24.20;84.10
20594;DHT22;10455;48.732;10.266;2022-09-04T17:11:11;24.00;84.80
20594;DHT22;10455;48.732;10.266;2022-09-04T17:16:19;23.80;88.30
20594;DHT22;10455;48.732;10.266;2022-09-04T17:21:24;23.60;90.30
20594;DHT22;10455;48.732;10.266;2022-09-04T17:26:49;23.10;92.80
20594;DHT22;10455;48.732;10.266;2022-09-04T17:31:58;22.70;95.10
20594;DHT22;10455;48.732;10.266;2022-09-04T17:37:04;22.20;95.10
20594;DHT22;10455;48.732;10.266;2022-09-04T17:42:17;21.70;97.40
20594;DHT22;10455;48.732;10.266;2022-09-04T17:47:29;21.10;97.70
20594;DHT22;10455;48.732;10.266;2022-09-04T17:52:34;20.50;98.40
20594;DHT22;10455;48.732;10.266;2022-09-04T17:57:51;20.00;99.90
20594;DHT22;10455;48.732;10.266;2022-09-04T18:03:00;19.40;99.90
20594;DHT22;10455;48.732;10.266;2022-09-04T18:08:07;19.00;99.90
20594;DHT22;10455;48.732;10.266;2022-09-04T18:13:15;18.50;99.90
20594;DHT22;10455;48.732;10.266;2022-09-04T18:18:22;18.30;99.90
20594;DHT22;10455;48.732;10.266;2022-09-04T18:23:52;18.10;99.90
20594;DHT22;10455;48.732;10.266;2022-09-04T18:29:00;17.80;99.90
20594;DHT22;10455;48.732;10.266;2022-09-04T18:34:19;17.50;99.90
20594;DHT22;10455;48.732;10.266;2022-09-04T18:39:30;17.30;99.90
20594;DHT22;10455;48.732;10.266;2022-09-04T18:44:42;17.00;99.90
20594;DHT22;10455;48.732;10.266;2022-09-04T18:49:53;16.80;99.90
20594;DHT22;10455;48.732;10.266;2022-09-04T18:54:58;16.60;99.90
20594;DHT22;10455;48.732;10.266;2022-09-04T19:00:05;16.40;99.90
20594;DHT22;10455;48.732;10.266;2022-09-04T19:05:12;16.20;99.90
20594;DHT22;10455;48.732;10.266;2022-09-04T19:10:18;16.10;99.90
20594;DHT22;10455;48.732;10.266;2022-09-04T19:15:44;15.90;99.90
20594;DHT22;10455;48.732;10.266;2022-09-04T19:20:53;15.90;99.90
20594;DHT22;10455;48.732;10.266;2022-09-04T19:25:59;15.70;99.90
20594;DHT22;10455;48.732;10.266;2022-09-04T19:31:06;15.60;99.90
20594;DHT22;10455;48.732;10.266;2022-09-04T19:36:19;15.50;99.90
20594;DHT22;10455;48.732;10.266;2022-09-04T19:41:26;15.40;99.90
20594;DHT22;10455;48.732;10.266;2022-09-04T19:46:36;15.20;99.90
20594;DHT22;10455;48.732;10.266;2022-09-04T19:51:56;15.00;99.90
20594;DHT22;10455;48.732;10.266;2022-09-04T19:57:15;15.00;99.90
20594;DHT22;10455;48.732;10.266;2022-09-04T20:02:26;14.80;99.90
20594;DHT22;10455;48.732;10.266;2022-09-04T20:07:43;14.80;99.90
20594;DHT22;10455;48.732;10.266;2022-09-04T20:12:59;14.70;99.90
20594;DHT22;10455;48.732;10.266;2022-09-04T20:18:08;14.60;99.90
20594;DHT22;10455;48.732;10.266;2022-09-04T20:23:17;14.50;99.90
20594;DHT22;10455;48.732;10.266;2022-09-04T20:28:44;14.30;99.90
20594;DHT22;10455;48.732;10.266;2022-09-04T20:33:53;14.30;99.90
20594;DHT22;10455;48.732;10.266;2022-09-04T20:39:02;14.20;99.90
20594;DHT22;10455;48.732;10.266;2022-09-04T20:44:14;14.10;99.90
20594;DHT22;10455;48.732;10.266;2022-09-04T20:49:23;14.10;99.90
20594;DHT22;10455;48.732;10.266;2022-09-04T20:54:52;14.00;99.90
20594;DHT22;10455;48.732;10.266;2022-09-04T21:00:00;14.00;99.90
20594;DHT22;10455;48.732;10.266;2022-09-04T21:05:25;14.00;99.90
20594;DHT22;10455;48.732;10.266;2022-09-04T21:10:36;14.00;99.90
20594;DHT22;10455;48.732;10.266;2022-09-04T21:15:47;14.00;99.90
20594;DHT22;10455;48.732;10.266;2022-09-04T21:21:07;13.80;99.90
20594;DHT22;10455;48.732;10.266;2022-09-04T21:26:22;13.70;99.90
20594;DHT22;10455;48.732;10.266;2022-09-04T21:31:43;13.60;99.90
20594;DHT22;10455;48.732;10.266;2022-09-04T21:36:57;13.50;99.90
20594;DHT22;10455;48.732;10.266;2022-09-04T21:42:14;13.30;99.90
20594;DHT22;10455;48.732;10.266;2022-09-04T21:47:31;13.20;99.90
20594;DHT22;10455;48.732;10.266;2022-09-04T21:52:57;13.30;99.90
20594;DHT22;10455;48.732;10.266;2022-09-04T22:03:35;13.10;99.90
20594;DHT22;10455;48.732;10.266;2022-09-04T22:08:51;13.00;99.90
20594;DHT22;10455;48.732;10.266;2022-09-04T22:14:05;13.00;99.90
20594;DHT22;10455;48.732;10.266;2022-09-04T22:19:32;13.00;99.90
20594;DHT22;10455;48.732;10.266;2022-09-04T22:25:10;12.80;99.90
20594;DHT22;10455;48.732;10.266;2022-09-04T22:30:20;12.80;99.90
20594;DHT22;10455;48.732;10.266;2022-09-04T22:36:02;12.80;99.90
20594;DHT22;10455;48.732;10.266;2022-09-04T22:41:34;12.80;99.90
20594;DHT22;10455;48.732;10.266;2022-09-04T22:47:03;12.90;99.90
20594;DHT22;10455;48.732;10.266;2022-09-04T22:52:35;12.70;99.90
20594;DHT22;10455;48.732;10.266;2022-09-04T22:57:48;12.50;99.90
20594;DHT22;10455;48.732;10.266;2022-09-04T23:03:16;12.40;99.90
20594;DHT22;10455;48.732;10.266;2022-09-04T23:08:33;12.40;99.90
20594;DHT22;10455;48.732;10.266;2022-09-04T23:13:51;12.30;99.90
20594;DHT22;10455;48.732;10.266;2022-09-04T23:19:12;12.30;99.90
20594;DHT22;10455;48.732;10.266;2022-09-04T23:24:36;12.20;99.90
20594;DHT22;10455;48.732;10.266;2022-09-04T23:35:31;12.10;99.90
20594;DHT22;10455;48.732;10.266;2022-09-04T23:40:39;12.10;99.90
20594;DHT22;10455;48.732;10.266;2022-09-04T23:51:27;12.00;99.90
20594;DHT22;10455;48.732;10.266;2022-09-04T23:56:33;12.00;99.90
